Dati Storici

Data ora Umidita' aria (%) Temperatura aria (°C) Rad globale (W/m²) Gonioanemometro (°) Tacoanemometro (m/s) Pioggia (mm)
01-07-2020 10:50 66.6 % 28.863 -59.242 2.476 0 0
01-07-2020 10:40 65.7 % 28.624 101.519 2.658 0 0
01-07-2020 10:30 66.2 % 28.791 114.002 1.266 0 0
01-07-2020 10:20 62.7 % 28.403 80.805 3.044 0 0
01-07-2020 10:10 61.6 % 28.972 62.163 1.736 0 0
01-07-2020 10:00 63.2 % 29.164 -64.618 0.38 0 0
01-07-2020 09:50 63.9 % 29.262 54.904 1.435 0 0
01-07-2020 09:40 68.7 % 28.701 -49.976 0.45 0 0
01-07-2020 09:30 69.1 % 28.226 -49.424 1.792 0 0
01-07-2020 09:20 70.2 % 27.687 8.311 2.784 0 0
01-07-2020 09:10 71.5 % 27.875 -64.268 0.689 0 0
01-07-2020 09:00 72 % 27.405 18.861 1.632 0 0
01-07-2020 08:50 72 % 27.194 45.423 2.178 0 0
01-07-2020 08:40 74.3 % 27.255 46.786 0.876 0 0
01-07-2020 08:30 76.1 % 27.046 14.783 1.129 0 0
01-07-2020 08:20 75.9 % 26.309 -68.13 1.791 0 0
01-07-2020 08:10 75.7 % 26.413 23.401 2.162 0 0
01-07-2020 08:00 79.5 % 26.306 -52.011 0.927 0 0
01-07-2020 07:50 78.7 % 25.8 -80.186 2.586 0 0
01-07-2020 07:40 81.3 % 26.21 -56.075 -0.002 0 0

I dati sono presentati in modo automatico a scopo informativo. In seguito a verifica i dati possono subire modifiche o essere invalidati e non riportati negli archivi definitivi.